Time;durP1;ratioP1;P1;durP2;ratioP2;P2;SDS_P1;SDS_P2;PMS_P1;PMS_P2;Temp;Humidity;BMP_temperature;BMP_pressure;BME280_temperature;BME280_humidity;BME280_pressure;Samples;Min_cycle;Max_cycle;Signal;HPM_P1;HPM_P2
2023/09/21 00:01:29;;;;;;;17.98;13.60;;;;;;;14.66;57.86;101013.35;1732021;83;21518;-59
2023/09/21 00:04:35;;;;;;;17.75;12.63;;;;;;;14.65;58.01;101011.65;1730028;82;21793;-59
2023/09/21 00:07:41;;;;;;;18.55;13.18;;;;;;;14.63;58.12;101013.73;1766372;81;21647;-58
2023/09/21 00:10:50;;;;;;;19.65;13.70;;;;;;;14.59;58.22;101015.12;1732019;82;21359;-58
2023/09/21 00:13:56;;;;;;;23.38;14.15;;;;;;;14.57;58.35;101019.99;1740685;82;21911;-58
2023/09/21 00:17:03;;;;;;;17.35;12.68;;;;;;;14.53;58.41;101022.25;1777152;81;21970;-58
2023/09/21 00:20:30;;;;;;;19.30;13.13;;;;;;;14.48;58.45;101016.95;1742853;82;21200;-58
2023/09/21 00:23:23;;;;;;;17.82;12.63;;;;;;;14.42;58.51;101015.81;1724231;82;21383;-57
2023/09/21 00:26:28;;;;;;;16.97;13.08;;;;;;;14.38;58.62;101015.83;1740690;82;21418;-58
2023/09/21 00:29:37;;;;;;;20.60;14.30;;;;;;;14.35;58.76;101014.82;1742663;82;21390;-58
2023/09/21 00:32:44;;;;;;;19.55;13.68;;;;;;;14.31;58.83;101008.49;1742609;82;21659;-58
2023/09/21 00:35:50;;;;;;;21.37;13.40;;;;;;;14.26;58.88;101015.07;1740643;82;21371;-58
2023/09/21 00:38:56;;;;;;;17.92;13.43;;;;;;;14.19;58.92;101020.96;1742661;82;21370;-58
2023/09/21 00:42:03;;;;;;;19.60;13.60;;;;;;;14.15;59.09;101020.97;1740669;82;21371;-58
2023/09/21 00:45:10;;;;;;;18.48;14.25;;;;;;;14.09;59.19;101010.70;1742821;82;21351;-58
2023/09/21 00:48:21;;;;;;;22.95;14.25;;;;;;;14.05;59.30;101012.12;1740694;82;21351;-59
2023/09/21 00:51:26;;;;;;;20.82;14.43;;;;;;;14.01;59.49;101013.51;1740787;82;21899;-60
2023/09/21 00:54:32;;;;;;;22.13;15.08;;;;;;;13.97;59.54;101013.01;1776895;81;21362;-61
2023/09/21 00:57:40;;;;;;;25.75;14.45;;;;;;;13.92;59.67;101015.45;1742788;82;21382;-59
2023/09/21 01:00:46;;;;;;;20.77;14.23;;;;;;;13.88;59.75;101016.00;1740384;82;21410;-59
2023/09/21 01:03:54;;;;;;;19.00;14.95;;;;;;;13.84;59.87;101017.41;1776864;81;21394;-59
2023/09/21 01:07:17;;;;;;;23.65;14.73;;;;;;;13.81;60.00;101021.91;1742706;82;21372;-60
2023/09/21 01:10:13;;;;;;;22.52;14.78;;;;;;;13.78;60.13;101018.14;1742729;82;21370;-59
2023/09/21 01:13:19;;;;;;;22.55;14.98;;;;;;;13.75;60.19;101019.89;1736366;82;21395;-59
2023/09/21 01:16:25;;;;;;;20.12;14.45;;;;;;;13.71;60.34;101015.77;1732022;81;21347;-59
2023/09/21 01:19:32;;;;;;;23.77;14.40;;;;;;;13.69;60.50;101030.22;1732376;82;21876;-59
2023/09/21 01:22:37;;;;;;;19.02;14.78;;;;;;;13.66;60.55;101033.33;1732085;82;21371;-57
2023/09/21 01:25:50;;;;;;;20.12;14.80;;;;;;;13.61;60.60;101026.13;1732091;81;21812;-57
2023/09/21 01:28:58;;;;;;;21.15;14.33;;;;;;;13.58;60.74;101026.48;1732247;82;21399;-58
2023/09/21 01:32:04;;;;;;;20.88;14.60;;;;;;;13.54;60.85;101029.60;1732133;82;21367;-58
2023/09/21 01:35:14;;;;;;;19.60;14.95;;;;;;;13.49;60.95;101024.31;1732113;81;21856;-58
2023/09/21 01:38:27;;;;;;;21.55;15.32;;;;;;;13.47;61.02;101024.49;1732171;82;21379;-58
2023/09/21 01:41:26;;;;;;;23.10;14.98;;;;;;;13.43;61.09;101023.12;1732008;81;21829;-58
2023/09/21 01:44:32;;;;;;;24.32;14.47;;;;;;;13.40;61.18;101028.98;1732357;82;21402;-59
2023/09/21 01:47:39;;;;;;;23.98;15.32;;;;;;;13.38;61.31;101024.70;1731991;82;21414;-59
2023/09/21 01:50:57;;;;;;;19.90;15.45;;;;;;;13.35;61.38;101031.41;1732090;82;21339;-58
2023/09/21 01:54:05;;;;;;;21.57;14.60;;;;;;;13.32;61.44;101036.39;1732161;82;21986;-58
2023/09/21 01:57:09;;;;;;;23.35;16.02;;;;;;;13.26;61.43;101032.48;1732009;81;21360;-57
2023/09/21 02:00:27;;;;;;;24.52;16.48;;;;;;;13.19;61.49;101032.83;1732212;81;21399;-60
2023/09/21 02:03:33;;;;;;;21.57;14.83;;;;;;;13.15;61.60;101035.61;1733265;82;21347;-58
2023/09/21 02:06:40;;;;;;;19.85;14.47;;;;;;;13.13;61.82;101037.67;1732438;81;21379;-59
2023/09/21 02:09:45;;;;;;;22.93;13.95;;;;;;;13.12;61.98;101035.97;1732599;82;21912;-59
2023/09/21 02:13:07;;;;;;;21.42;15.40;;;;;;;13.09;62.05;101036.32;1732313;82;21359;-58
2023/09/21 02:16:14;;;;;;;23.05;15.28;;;;;;;13.07;62.16;101032.88;1763848;81;21928;-58
2023/09/21 02:19:20;;;;;;;23.55;15.15;;;;;;;13.05;62.30;101036.31;1763968;81;21848;-59
2023/09/21 02:22:24;;;;;;;26.20;15.48;;;;;;;13.04;62.44;101040.11;1764340;81;21399;-58
2023/09/21 02:25:25;;;;;;;19.90;15.53;;;;;;;13.04;62.57;101037.87;1764260;81;21363;-58
2023/09/21 02:28:32;;;;;;;22.20;15.53;;;;;;;13.02;62.61;101035.30;1763958;81;21398;-57
2023/09/21 02:31:42;;;;;;;19.62;15.20;;;;;;;13.00;62.64;101038.73;1764032;81;21343;-57
2023/09/21 02:34:48;;;;;;;24.63;15.38;;;;;;;12.97;62.75;101036.30;1763881;81;21888;-58
2023/09/21 02:37:54;;;;;;;22.07;16.55;;;;;;;12.96;62.94;101037.34;1764005;81;21403;-58
2023/09/21 02:41:00;;;;;;;25.40;17.12;;;;;;;12.96;63.06;101034.59;1763983;80;21418;-59
2023/09/21 02:44:07;;;;;;;29.75;16.52;;;;;;;12.96;63.14;101035.97;1763845;81;21952;-58
2023/09/21 02:47:13;;;;;;;23.85;16.67;;;;;;;12.95;63.26;101037.02;1764016;81;21316;-58
2023/09/21 02:50:27;;;;;;;22.15;16.35;;;;;;;12.95;63.32;101038.89;1764063;81;21853;-58
2023/09/21 02:53:33;;;;;;;24.43;16.80;;;;;;;12.93;63.37;101039.58;1763919;81;21912;-58
2023/09/21 02:56:33;;;;;;;24.60;16.45;;;;;;;12.92;63.43;101042.00;1764066;81;21343;-58
2023/09/21 02:59:40;;;;;;;27.15;16.70;;;;;;;12.90;63.48;101042.17;1763950;81;21339;-59
2023/09/21 03:02:47;;;;;;;23.12;16.65;;;;;;;12.89;63.58;101050.59;1763970;81;21390;-59
2023/09/21 03:05:55;;;;;;;27.02;17.45;;;;;;;12.86;63.64;101047.66;1764385;81;21398;-59
2023/09/21 03:09:01;;;;;;;24.92;17.62;;;;;;;12.85;63.74;101039.59;1764026;81;21366;-58
2023/09/21 03:12:07;;;;;;;26.52;17.60;;;;;;;12.83;63.82;101042.52;1764343;81;21400;-59
2023/09/21 03:15:15;;;;;;;25.25;17.30;;;;;;;12.82;63.90;101051.80;1756810;79;21322;-59
2023/09/21 03:18:24;;;;;;;25.37;18.17;;;;;;;12.81;63.90;101049.23;1763689;81;21338;-60
2023/09/21 03:21:34;;;;;;;30.35;18.12;;;;;;;12.78;63.93;101050.41;1771049;80;21335;-59
2023/09/21 03:24:33;;;;;;;27.45;18.27;;;;;;;12.77;63.99;101054.20;1763982;81;21933;-59
2023/09/21 03:27:40;;;;;;;25.82;17.42;;;;;;;12.74;64.00;101050.95;1771290;81;21440;-59
2023/09/21 03:30:53;;;;;;;26.70;17.65;;;;;;;12.71;64.03;101060.91;1764170;81;21398;-60
2023/09/21 03:34:05;;;;;;;28.23;17.95;;;;;;;12.68;64.07;101057.14;1770778;81;21870;-58
2023/09/21 03:37:11;;;;;;;22.02;17.27;;;;;;;12.66;64.13;101058.69;1771415;81;21362;-60
2023/09/21 03:40:18;;;;;;;25.92;17.65;;;;;;;12.62;64.18;101054.55;1763210;81;21931;-61
2023/09/21 03:43:25;;;;;;;23.67;17.62;;;;;;;12.60;64.24;101059.38;1753623;81;21364;-60
2023/09/21 03:46:31;;;;;;;20.97;17.27;;;;;;;12.58;64.38;101053.70;1701419;83;21217;-59
2023/09/21 03:49:38;;;;;;;26.57;17.87;;;;;;;12.59;64.50;101063.67;1703634;84;21450;-60
2023/09/21 03:52:44;;;;;;;26.55;17.70;;;;;;;12.57;64.59;101059.73;1720680;83;21365;-60
2023/09/21 03:55:54;;;;;;;22.62;17.12;;;;;;;12.56;64.64;101068.14;1703352;84;21434;-61
2023/09/21 03:59:02;;;;;;;25.25;16.97;;;;;;;12.56;64.75;101068.14;1703663;84;21424;-61
2023/09/21 04:02:09;;;;;;;24.45;17.85;;;;;;;12.58;64.88;101064.18;1720423;83;21868;-61
2023/09/21 04:05:18;;;;;;;25.48;16.35;;;;;;;12.59;64.92;101068.63;1702917;84;21711;-60
2023/09/21 04:08:25;;;;;;;23.73;17.00;;;;;;;12.60;64.99;101069.50;1703087;84;21418;-61
2023/09/21 04:11:34;;;;;;;26.68;16.87;;;;;;;12.63;65.14;101070.52;1719975;82;21398;-58
2023/09/21 04:14:42;;;;;;;25.25;17.45;;;;;;;12.67;65.28;101072.75;1703113;84;21364;-59
2023/09/21 04:17:48;;;;;;;23.18;17.32;;;;;;;12.70;65.38;101076.52;1700473;84;21233;-59
2023/09/21 04:20:55;;;;;;;27.22;17.07;;;;;;;12.77;65.49;101080.81;1728163;83;21805;-59
2023/09/21 04:24:03;;;;;;;21.45;16.67;;;;;;;12.82;65.65;101079.28;1701392;83;21446;-61
2023/09/21 04:27:08;;;;;;;22.90;17.82;;;;;;;12.89;65.77;101084.95;1700804;84;21825;-60
2023/09/21 04:30:22;;;;;;;24.23;16.12;;;;;;;12.95;65.84;101086.48;1728115;83;21194;-60
2023/09/21 04:33:25;;;;;;;24.55;16.50;;;;;;;13.01;65.91;101080.31;1685325;84;21680;-60
2023/09/21 04:36:30;;;;;;;26.17;17.23;;;;;;;13.07;66.04;101069.99;1700792;84;21213;-59
2023/09/21 04:39:37;;;;;;;22.85;17.30;;;;;;;13.16;66.14;101074.42;1721845;82;21687;-61
2023/09/21 04:42:50;;;;;;;22.20;16.75;;;;;;;13.24;66.23;101070.28;1683885;84;21754;-60
2023/09/21 04:45:56;;;;;;;26.15;16.32;;;;;;;13.33;66.29;101073.34;1709651;83;21465;-59
2023/09/21 04:49:02;;;;;;;25.23;16.57;;;;;;;13.42;66.33;101079.69;1710117;83;21363;-59
2023/09/21 04:52:09;;;;;;;30.37;16.60;;;;;;;13.50;66.38;101076.91;1699500;84;21766;-59
2023/09/21 04:55:18;;;;;;;27.07;17.07;;;;;;;13.60;66.44;101073.44;1724846;82;21538;-61
2023/09/21 04:58:24;;;;;;;30.60;17.62;;;;;;;13.69;66.49;101082.49;1673763;85;21398;-59
2023/09/21 05:01:32;;;;;;;36.65;17.00;;;;;;;13.77;66.53;101075.58;1697375;82;21234;-59
2023/09/21 05:04:40;;;;;;;36.42;21.90;;;;;;;13.86;66.61;101084.16;1725297;82;21277;-59
2023/09/21 05:07:47;;;;;;;28.20;18.60;;;;;;;13.95;66.67;101084.44;1705135;81;21208;-59
2023/09/21 05:10:55;;;;;;;27.42;17.67;;;;;;;14.04;66.71;101085.59;1703974;84;21275;-59
2023/09/21 05:14:02;;;;;;;28.98;16.40;;;;;;;14.14;66.75;101083.98;1720486;81;21176;-59
2023/09/21 05:17:10;;;;;;;27.27;16.80;;;;;;;14.23;66.78;101084.26;1690924;82;21220;-59
2023/09/21 05:20:19;;;;;;;25.27;17.17;;;;;;;14.32;66.81;101091.45;1713478;82;21231;-58
2023/09/21 05:23:25;;;;;;;28.10;17.80;;;;;;;14.43;66.82;101092.44;1718527;80;21198;-61
2023/09/21 05:26:30;;;;;;;32.63;18.07;;;;;;;14.52;66.85;101092.70;1716268;82;21231;-60
2023/09/21 05:29:37;;;;;;;40.50;22.27;;;;;;;14.62;66.90;101091.91;1709167;82;21768;-60
2023/09/21 05:32:45;;;;;;;26.40;16.97;;;;;;;14.73;66.92;101094.27;1723268;81;21188;-62
2023/09/21 05:36:04;;;;;;;23.90;15.38;;;;;;;14.83;66.93;101097.59;1746597;79;21771;-61
2023/09/21 05:39:08;;;;;;;24.57;14.65;;;;;;;14.94;66.96;101091.63;1724722;80;21204;-59
2023/09/21 05:42:15;;;;;;;25.88;14.98;;;;;;;15.05;66.98;101092.55;1713183;81;21204;-60
2023/09/21 05:45:22;;;;;;;27.65;14.78;;;;;;;15.16;66.98;101096.23;1724703;81;21181;-60
2023/09/21 05:48:29;;;;;;;29.80;15.85;;;;;;;15.28;66.98;101093.88;1730913;82;21733;-59
2023/09/21 05:51:37;;;;;;;23.35;13.98;;;;;;;15.37;66.98;101096.36;1726230;83;21384;-60
2023/09/21 05:54:43;;;;;;;24.40;14.00;;;;;;;15.48;67.00;101097.30;1724936;81;21196;-59
2023/09/21 05:57:50;;;;;;;21.12;14.38;;;;;;;15.59;67.01;101095.45;1705658;82;21224;-60
2023/09/21 06:00:59;;;;;;;24.72;15.18;;;;;;;15.70;67.01;101099.61;1722968;81;21235;-61
2023/09/21 06:04:07;;;;;;;27.13;13.72;;;;;;;15.80;67.02;101099.67;1728508;83;21717;-61
2023/09/21 06:07:14;;;;;;;25.30;14.65;;;;;;;15.91;67.02;101099.19;1723804;82;21370;-58
2023/09/21 06:10:21;;;;;;;26.17;14.07;;;;;;;16.01;67.04;101102.51;1714085;81;21250;-59
2023/09/21 06:13:37;;;;;;;25.80;15.25;;;;;;;16.15;67.08;101108.52;1722540;80;21204;-59
2023/09/21 06:20:41;;;;;;;23.65;14.58;;;;;;;16.46;67.12;101115.16;1699572;82;21275;-61
2023/09/21 06:24:12;;;;;;;25.45;14.58;;;;;;;16.63;67.10;101117.16;1707424;82;21380;-58
2023/09/21 06:27:30;;;;;;;23.12;14.20;;;;;;;16.80;67.06;101112.55;1720239;82;21844;-58
2023/09/21 06:30:53;;;;;;;23.02;13.93;;;;;;;16.97;67.03;101114.49;1728847;82;21901;-62
2023/09/21 06:34:25;;;;;;;23.98;13.28;;;;;;;17.11;67.01;101120.50;1730211;82;21213;-57
2023/09/21 06:37:40;;;;;;;24.02;13.53;;;;;;;17.27;66.91;101118.27;1706151;81;21616;-58
2023/09/21 06:41:20;;;;;;;23.20;12.55;;;;;;;17.41;66.84;101122.01;1712547;82;21251;-61
2023/09/21 06:44:40;;;;;;;20.88;11.68;;;;;;;17.57;66.77;101117.55;1705137;82;21227;-58
2023/09/21 06:48:16;;;;;;;21.70;12.00;;;;;;;17.76;66.76;101123.73;1720683;82;21252;-58
2023/09/21 06:51:51;;;;;;;20.37;11.88;;;;;;;17.88;66.72;101124.37;1715507;81;21272;-58
2023/09/21 06:55:28;;;;;;;19.77;12.15;;;;;;;18.02;66.62;101125.27;1726253;81;21260;-59
2023/09/21 06:59:00;;;;;;;21.02;12.33;;;;;;;18.16;66.57;101124.78;1718807;82;21303;-60
2023/09/21 07:02:24;;;;;;;17.27;11.05;;;;;;;18.26;66.48;101121.97;1726050;82;21418;-60
2023/09/21 07:05:49;;;;;;;;;;;;;;;18.37;66.37;101128.30;1699994;82;21271;-58
2023/09/21 07:08:57;;;;;;;20.82;11.25;;;;;;;18.48;66.33;101119.41;1726338;81;20405;-59
2023/09/21 07:12:09;;;;;;;19.35;10.68;;;;;;;18.58;66.27;101118.48;1692023;82;21230;-60
2023/09/21 07:15:19;;;;;;;16.15;10.38;;;;;;;18.70;66.22;101118.17;1718956;82;21211;-61
2023/09/21 07:18:32;;;;;;;20.37;10.00;;;;;;;18.81;66.08;101113.39;1723136;81;21520;-60
2023/09/21 07:21:40;;;;;;;13.68;9.15;;;;;;;18.93;65.94;101109.46;1757511;81;21518;-60
2023/09/21 07:24:47;;;;;;;15.32;8.68;;;;;;;19.04;65.84;101117.98;1760501;81;21196;-58
2023/09/21 07:27:54;;;;;;;12.33;8.23;;;;;;;19.16;65.72;101115.44;1752091;80;21479;-61
2023/09/21 07:31:02;;;;;;;24.23;8.88;;;;;;;19.28;65.65;101115.99;1752635;80;21189;-61
2023/09/21 07:34:10;;;;;;;12.13;7.80;;;;;;;19.43;65.56;101119.94;1756980;79;21181;-61
2023/09/21 07:40:38;;;;;;;11.38;7.55;;;;;;;19.68;65.32;101116.79;1669468;84;21295;-60
2023/09/21 07:47:31;;;;;;;14.50;7.20;;;;;;;19.97;65.10;101110.73;1711352;81;21900;-60
2023/09/21 07:50:37;;;;;;;13.20;7.15;;;;;;;20.13;64.93;101109.38;1730038;81;21195;-60
2023/09/21 07:53:43;;;;;;;16.87;7.37;;;;;;;20.23;64.75;101108.42;1735774;81;21215;-57
2023/09/21 07:56:50;;;;;;;14.70;7.10;;;;;;;20.30;64.53;101104.52;1736554;81;22040;-56
2023/09/21 07:59:56;;;;;;;10.72;6.62;;;;;;;20.43;64.36;101109.16;1741933;81;21239;-57
2023/09/21 08:03:02;;;;;;;9.85;5.97;;;;;;;20.53;64.17;101106.77;1731334;81;21336;-56
2023/09/21 08:06:08;;;;;;;8.63;5.85;;;;;;;20.61;63.96;101109.28;1734975;80;21192;-56
2023/09/21 08:09:14;;;;;;;10.55;5.78;;;;;;;20.70;63.73;101107.93;1729552;81;21741;-59
2023/09/21 08:12:22;;;;;;;12.28;5.87;;;;;;;20.78;63.47;101106.27;1724189;81;21486;-58
2023/09/21 08:15:27;;;;;;;11.45;5.47;;;;;;;20.91;63.26;101102.01;1741372;82;21712;-56
2023/09/21 08:18:36;;;;;;;12.47;5.35;;;;;;;21.04;63.08;101101.92;1720827;81;21201;-57
2023/09/21 08:21:44;;;;;;;11.15;5.83;;;;;;;21.15;62.87;101104.52;1734720;81;21781;-56
2023/09/21 08:24:52;;;;;;;8.25;5.10;;;;;;;21.25;62.67;101102.09;1735676;80;21208;-55
2023/09/21 08:27:58;;;;;;;8.58;5.58;;;;;;;21.36;62.52;101107.75;1722590;81;21573;-56
2023/09/21 08:31:05;;;;;;;9.98;5.30;;;;;;;21.46;62.26;101114.20;1730421;82;21488;-56
2023/09/21 08:34:12;;;;;;;9.73;5.50;;;;;;;21.55;62.01;101113.67;1751393;80;21415;-56
2023/09/21 08:37:18;;;;;;;18.17;5.08;;;;;;;21.60;61.65;101099.91;1730265;81;21606;-55
2023/09/21 08:40:28;;;;;;;7.58;5.12;;;;;;;21.67;61.37;101109.06;1728858;82;21581;-56
2023/09/21 08:43:27;;;;;;;8.75;4.42;;;;;;;21.77;61.14;101101.59;1717061;82;21220;-54
2023/09/21 08:46:28;;;;;;;11.12;4.70;;;;;;;21.86;60.85;101103.84;1716965;80;21180;-54
2023/09/21 08:49:35;;;;;;;10.35;4.92;;;;;;;21.93;60.58;101101.81;1710441;82;21207;-54
2023/09/21 08:52:41;;;;;;;8.05;4.62;;;;;;;22.01;60.30;101095.93;1718420;81;21237;-54
2023/09/21 08:55:48;;;;;;;9.55;4.83;;;;;;;22.09;60.03;101091.97;1721965;82;21748;-54
2023/09/21 08:58:55;;;;;;;7.85;4.62;;;;;;;22.17;59.70;101090.26;1729204;82;21176;-54
2023/09/21 09:02:00;;;;;;;11.65;5.00;;;;;;;22.25;59.43;101094.69;1734703;81;21906;-56
2023/09/21 09:05:06;;;;;;;8.28;5.33;;;;;;;22.34;59.15;101090.48;1735205;81;21413;-54
2023/09/21 09:08:13;;;;;;;9.03;4.75;;;;;;;22.40;58.83;101088.13;1738571;81;21934;-55
2023/09/21 09:11:25;;;;;;;7.15;4.70;;;;;;;22.48;58.59;101086.41;1701800;83;21256;-55
2023/09/21 09:14:31;;;;;;;6.95;4.62;;;;;;;22.58;58.34;101082.55;1731153;82;21606;-55
2023/09/21 09:17:40;;;;;;;7.87;4.75;;;;;;;22.66;57.96;101092.81;1739021;81;21500;-54
2023/09/21 09:20:47;;;;;;;9.55;4.47;;;;;;;22.71;57.59;101089.31;1739816;81;21361;-54
2023/09/21 09:23:54;;;;;;;6.60;4.47;;;;;;;22.76;57.23;101093.64;1738936;82;21389;-54
2023/09/21 09:27:01;;;;;;;8.80;4.58;;;;;;;22.85;56.98;101089.44;1719723;82;21219;-54
2023/09/21 09:30:08;;;;;;;8.98;4.58;;;;;;;22.91;56.64;101088.48;1732241;81;21295;-54
2023/09/21 09:33:16;;;;;;;9.05;4.60;;;;;;;22.97;56.33;101095.36;1710666;81;21199;-54
2023/09/21 09:36:22;;;;;;;7.03;4.45;;;;;;;23.05;56.04;101088.56;1709065;84;21576;-54
2023/09/21 09:39:27;;;;;;;7.60;4.83;;;;;;;23.10;55.73;101088.70;1709022;84;21184;-55
2023/09/21 09:42:32;;;;;;;7.17;4.50;;;;;;;23.19;55.50;101093.70;1710679;83;21188;-54
2023/09/21 09:45:39;;;;;;;8.85;4.53;;;;;;;23.29;55.17;101090.34;1709897;83;21215;-55
2023/09/21 09:48:47;;;;;;;6.80;4.22;;;;;;;23.38;54.81;101087.48;1713814;80;21712;-54
2023/09/21 09:51:53;;;;;;;10.95;6.03;;;;;;;23.45;54.49;101092.42;1743335;81;21217;-55
2023/09/21 09:55:00;;;;;;;11.15;6.60;;;;;;;23.51;54.13;101090.04;1735349;82;21203;-54
2023/09/21 09:58:08;;;;;;;6.25;4.15;;;;;;;23.55;53.74;101077.27;1739550;81;21212;-55
2023/09/21 10:01:17;;;;;;;7.20;3.75;;;;;;;23.59;53.38;101077.09;1736866;82;21216;-54
2023/09/21 10:04:24;;;;;;;8.60;4.42;;;;;;;23.64;53.09;101073.03;1735267;80;21565;-55
2023/09/21 10:07:31;;;;;;;8.20;3.35;;;;;;;23.69;52.72;101068.92;1729211;82;21211;-54
2023/09/21 10:10:42;;;;;;;5.35;3.30;;;;;;;23.75;52.40;101076.36;1730376;81;21762;-56
2023/09/21 10:14:26;;;;;;;4.30;3.35;;;;;;;23.93;51.69;101074.79;1741615;81;21926;-57
2023/09/21 10:17:36;;;;;;;8.53;3.90;;;;;;;23.93;51.69;101074.79;1735640;82;21215;-56
2023/09/21 10:20:44;;;;;;;8.68;3.52;;;;;;;24.04;51.52;101072.55;1743179;82;22076;-57
2023/09/21 10:24:26;;;;;;;5.25;3.70;;;;;;;24.10;51.21;101064.55;1741295;82;21597;-59
2023/09/21 10:27:35;;;;;;;5.33;3.80;;;;;;;24.17;50.92;101067.22;1733481;82;21702;-57
2023/09/21 10:30:43;;;;;;;7.10;3.47;;;;;;;24.29;50.69;101063.84;1724121;82;21741;-58
2023/09/21 10:34:08;;;;;;;8.10;3.77;;;;;;;24.38;50.42;101066.00;1715775;81;21230;-59
2023/09/21 10:37:13;;;;;;;6.72;3.37;;;;;;;24.46;50.08;101059.14;1723141;81;21201;-58
2023/09/21 10:40:26;;;;;;;7.22;4.28;;;;;;;24.54;49.76;101055.41;1734787;80;21768;-55
2023/09/21 10:43:51;;;;;;;11.50;4.70;;;;;;;24.63;49.41;101037.63;1729433;81;21215;-58
2023/09/21 10:46:56;;;;;;;6.75;3.67;;;;;;;24.72;49.19;101041.77;1730003;82;21377;-57
2023/09/21 10:50:12;;;;;;;5.47;3.75;;;;;;;24.82;48.90;101039.98;1738317;79;21357;-56
2023/09/21 10:53:18;;;;;;;5.35;3.72;;;;;;;24.90;48.63;101035.38;1717493;82;21172;-55
2023/09/21 10:56:24;;;;;;;6.30;3.80;;;;;;;25.00;48.34;101027.15;1733569;81;21747;-55
2023/09/21 10:59:29;;;;;;;10.90;4.20;;;;;;;25.08;48.05;101022.48;1739385;81;21426;-56
2023/09/21 11:02:40;;;;;;;6.53;3.77;;;;;;;25.14;47.77;101025.38;1734209;82;21199;-55
2023/09/21 11:05:47;;;;;;;7.60;3.42;;;;;;;25.17;47.51;101020.13;1742318;81;21234;-56
2023/09/21 11:08:55;;;;;;;9.90;3.50;;;;;;;25.27;47.25;101020.30;1736531;80;21354;-57
2023/09/21 11:12:02;;;;;;;8.45;3.58;;;;;;;25.35;47.06;101014.28;1732087;80;21266;-56
2023/09/21 11:15:12;;;;;;;6.75;3.75;;;;;;;25.48;46.94;101011.67;1740151;81;21211;-56
2023/09/21 11:18:17;;;;;;;5.20;3.55;;;;;;;25.61;46.69;101009.33;1733016;81;21263;-57
2023/09/21 11:21:24;;;;;;;8.58;3.27;;;;;;;25.72;46.40;101014.55;1722468;81;21298;-56
2023/09/21 11:24:43;;;;;;;7.50;3.60;;;;;;;25.80;46.10;101003.70;1705068;82;21244;-55
2023/09/21 11:27:52;;;;;;;4.35;3.05;;;;;;;25.85;45.70;101003.77;1730610;81;21311;-57
2023/09/21 11:30:58;;;;;;;6.70;3.45;;;;;;;25.91;45.44;100996.28;1723247;81;21562;-58
2023/09/21 11:34:11;;;;;;;5.22;3.50;;;;;;;25.96;45.14;101006.14;1735261;81;21234;-56
2023/09/21 11:37:19;;;;;;;6.22;3.42;;;;;;;26.06;45.01;101007.17;1723026;82;21207;-56
2023/09/21 11:40:24;;;;;;;6.28;3.30;;;;;;;26.19;44.83;100994.68;1734612;81;21211;-57
2023/09/21 11:43:29;;;;;;;7.42;3.10;;;;;;;26.32;44.66;101002.70;1733044;82;21259;-54
2023/09/21 11:46:36;;;;;;;12.47;3.72;;;;;;;26.44;44.46;100989.34;1696000;82;22120;-55
2023/09/21 11:49:49;;;;;;;8.88;4.65;;;;;;;26.55;44.18;101002.37;1724741;81;21203;-55
2023/09/21 11:53:14;;;;;;;6.47;4.10;;;;;;;26.61;43.84;100991.47;1694682;83;21229;-58
2023/09/21 11:56:21;;;;;;;7.40;3.95;;;;;;;26.66;43.45;100987.88;1721248;81;21291;-56
2023/09/21 11:59:28;;;;;;;11.97;7.17;;;;;;;26.67;43.12;100989.02;1717914;81;21545;-56
2023/09/21 12:02:34;;;;;;;7.83;3.65;;;;;;;26.68;42.82;100984.27;1728256;82;21867;-55
2023/09/21 12:05:45;;;;;;;6.80;4.10;;;;;;;26.65;42.47;100985.66;1730702;80;21215;-56
2023/09/21 12:08:51;;;;;;;6.95;3.90;;;;;;;26.60;42.20;100986.11;1727924;81;21191;-55
2023/09/21 12:11:58;;;;;;;6.28;3.67;;;;;;;26.61;42.10;100987.25;1732612;81;21235;-58
2023/09/21 12:15:11;;;;;;;8.28;3.47;;;;;;;26.61;41.87;100985.84;1726047;80;21721;-57
2023/09/21 12:18:21;;;;;;;5.75;4.08;;;;;;;26.63;41.69;100984.17;1740154;82;21703;-57
2023/09/21 12:21:28;;;;;;;6.42;3.60;;;;;;;26.61;41.43;100986.43;1739729;81;21211;-56
2023/09/21 12:24:34;;;;;;;8.38;4.83;;;;;;;26.59;41.30;100982.48;1742919;81;21738;-56
2023/09/21 12:27:42;;;;;;;5.97;4.30;;;;;;;26.60;41.21;100982.77;1739782;80;21729;-56
2023/09/21 12:30:48;;;;;;;12.85;4.35;;;;;;;26.59;41.04;100981.08;1741130;81;21212;-56
2023/09/21 12:33:53;;;;;;;6.75;4.33;;;;;;;26.57;40.85;100976.27;1737305;80;21200;-57
2023/09/21 12:36:59;;;;;;;7.72;4.17;;;;;;;26.54;40.71;100979.63;1735746;80;21187;-56
2023/09/21 12:40:11;;;;;;;7.95;4.60;;;;;;;26.47;40.51;100981.78;1732021;80;21286;-56
2023/09/21 12:43:13;;;;;;;9.98;4.78;;;;;;;26.43;40.42;100984.27;1729516;80;21505;-55
2023/09/21 12:46:19;;;;;;;11.95;4.70;;;;;;;26.39;40.29;100972.42;1729697;81;22032;-56
2023/09/21 12:49:24;;;;;;;7.17;4.10;;;;;;;26.38;40.25;100983.38;1738785;81;21207;-55
2023/09/21 12:52:31;;;;;;;7.47;4.92;;;;;;;26.37;40.19;100974.10;1736370;79;21210;-57
2023/09/21 12:55:40;;;;;;;8.45;4.62;;;;;;;26.33;40.00;100977.16;1737874;81;21266;-54
2023/09/21 12:58:45;;;;;;;10.78;5.60;;;;;;;26.27;39.85;100978.77;1740619;82;21253;-54
2023/09/21 13:01:52;;;;;;;7.90;5.12;;;;;;;26.23;39.80;100970.57;1724927;81;21203;-54
2023/09/21 13:04:59;;;;;;;8.60;5.03;;;;;;;26.19;39.70;100968.02;1732513;82;21212;-54
2023/09/21 13:08:08;;;;;;;11.28;5.20;;;;;;;26.13;39.61;100969.90;1731114;81;21238;-55
2023/09/21 13:11:16;;;;;;;8.73;5.20;;;;;;;26.10;39.50;100963.98;1732828;81;21215;-53
2023/09/21 13:14:22;;;;;;;10.20;4.90;;;;;;;26.06;39.46;100960.00;1734840;82;21705;-52
2023/09/21 13:17:30;;;;;;;6.12;4.83;;;;;;;26.01;39.39;100961.34;1714903;82;21215;-53
2023/09/21 13:20:38;;;;;;;10.43;4.97;;;;;;;25.97;39.36;100960.15;1725087;81;21207;-53
2023/09/21 13:23:47;;;;;;;9.93;6.67;;;;;;;25.90;39.29;100961.75;1728359;81;21238;-54
2023/09/21 13:26:55;;;;;;;7.22;5.87;;;;;;;25.87;39.30;100958.06;1724367;82;21368;-53
2023/09/21 13:30:01;;;;;;;10.85;5.28;;;;;;;25.80;39.25;100960.21;1728439;81;21230;-54
2023/09/21 13:33:10;;;;;;;10.08;5.28;;;;;;;25.75;39.24;100950.33;1726685;81;21268;-54
2023/09/21 13:36:17;;;;;;;7.97;4.95;;;;;;;25.70;39.28;100950.28;1699050;81;21215;-53
2023/09/21 13:39:22;;;;;;;10.20;5.60;;;;;;;25.65;39.21;100950.22;1734227;81;21625;-53
2023/09/21 13:42:27;;;;;;;11.90;4.80;;;;;;;25.61;39.21;100952.41;1717120;81;21557;-54
2023/09/21 13:45:34;;;;;;;12.03;5.97;;;;;;;25.55;39.21;100947.81;1724442;81;21868;-54
2023/09/21 13:48:41;;;;;;;10.18;5.08;;;;;;;25.51;39.25;100946.66;1719285;81;21227;-54
2023/09/21 13:51:47;;;;;;;12.18;5.58;;;;;;;25.48;39.32;100944.37;1723538;81;21251;-53
2023/09/21 13:54:55;;;;;;;8.65;5.55;;;;;;;25.47;39.33;100938.45;1726587;81;21192;-54
2023/09/21 13:58:01;;;;;;;9.33;5.40;;;;;;;25.47;39.37;100944.05;1727907;82;21212;-57
2023/09/21 14:01:08;;;;;;;12.23;5.17;;;;;;;25.43;39.40;100947.09;1731329;81;21742;-58
2023/09/21 14:04:13;;;;;;;10.30;5.20;;;;;;;25.40;39.38;100944.27;1732160;81;21188;-60
2023/09/21 14:07:21;;;;;;;12.58;5.55;;;;;;;25.42;39.48;100949.05;1722634;81;21768;-58
2023/09/21 14:10:26;;;;;;;11.00;5.40;;;;;;;25.40;39.43;100942.02;1668742;85;21221;-58
2023/09/21 14:13:31;;;;;;;9.83;5.17;;;;;;;25.35;39.41;100941.39;1725934;81;21558;-59
2023/09/21 14:16:38;;;;;;;7.42;4.92;;;;;;;25.30;39.41;100943.23;1731318;82;21256;-59
2023/09/21 14:19:44;;;;;;;8.45;5.25;;;;;;;25.22;39.40;100941.72;1732155;82;21712;-59
2023/09/21 14:22:50;;;;;;;11.60;5.10;;;;;;;25.14;39.38;100933.75;1720899;80;21231;-59
2023/09/21 14:25:55;;;;;;;14.18;5.28;;;;;;;25.08;39.44;100939.82;1724129;81;21195;-59
2023/09/21 14:29:01;;;;;;;10.05;5.17;;;;;;;25.01;39.48;100940.57;1710514;82;21749;-60
2023/09/21 14:32:07;;;;;;;12.70;5.28;;;;;;;24.95;39.53;100944.41;1712564;81;21831;-59
2023/09/21 14:35:15;;;;;;;9.78;5.03;;;;;;;24.86;39.58;100940.31;1725771;82;21267;-60
2023/09/21 14:38:19;;;;;;;8.85;5.28;;;;;;;24.78;39.66;100940.75;1716822;82;21271;-60